Time;durP1;ratioP1;P1;durP2;ratioP2;P2;SDS_P1;SDS_P2;PMS_P1;PMS_P2;Temp;Humidity;BMP_temperature;BMP_pressure;BME280_temperature;BME280_humidity;BME280_pressure;Samples;Min_cycle;Max_cycle;Signal;HPM_P1;HPM_P2
2022/01/28 00:01:24;;;;;;;6.32;2.80;;;;;;;;;;5045595;28;20103;-75
2022/01/28 00:04:00;;;;;;;7.35;2.97;;;;;;;;;;5035033;28;20045;-74
2022/01/28 00:06:30;;;;;;;9.85;3.00;;;;;;;;;;5044298;28;20465;-74
2022/01/28 00:08:59;;;;;;;10.10;3.45;;;;;;;;;;5033667;28;20115;-73
2022/01/28 00:11:27;;;;;;;7.55;3.13;;;;;;;;;;5046450;28;20055;-74
2022/01/28 00:13:57;;;;;;;7.32;3.20;;;;;;;;;;5048168;28;20056;-75
2022/01/28 00:38:44;;;;;;;7.15;2.92;;;;;;;;;;5039227;28;20049;-75
2022/01/28 00:41:12;;;;;;;4.78;2.65;;;;;;;;;;5042008;28;20572;-75
2022/01/28 00:43:41;;;;;;;6.05;3.20;;;;;;;;;;5043183;28;20080;-75
2022/01/28 00:46:09;;;;;;;6.25;2.85;;;;;;;;;;5050585;28;20057;-75
2022/01/28 00:48:38;;;;;;;5.95;3.17;;;;;;;;;;5045616;28;20054;-75
2022/01/28 00:51:06;;;;;;;4.78;2.90;;;;;;;;;;5038769;28;20564;-75
2022/01/28 00:53:39;;;;;;;7.25;3.35;;;;;;;;;;5040526;28;20052;-75
2022/01/28 00:56:10;;;;;;;7.68;3.25;;;;;;;;;;5049836;28;20055;-76
2022/01/28 00:58:38;;;;;;;6.82;3.30;;;;;;;;;;5036891;28;20141;-75
2022/01/28 01:01:06;;;;;;;6.13;3.22;;;;;;;;;;5043594;28;20113;-75
2022/01/28 01:03:35;;;;;;;5.25;2.53;;;;;;;;;;5046268;28;20077;-76
2022/01/28 01:06:06;;;;;;;4.82;3.20;;;;;;;;;;5033451;28;20129;-75
2022/01/28 01:08:34;;;;;;;7.00;3.50;;;;;;;;;;5041951;28;20693;-74
2022/01/28 01:11:09;;;;;;;5.78;3.10;;;;;;;;;;5052922;28;20124;-75
2022/01/28 01:13:41;;;;;;;5.75;2.90;;;;;;;;;;5040011;28;20048;-75
2022/01/28 01:16:12;;;;;;;5.53;2.65;;;;;;;;;;5050976;28;20131;-75
2022/01/28 01:18:49;;;;;;;7.90;3.38;;;;;;;;;;5045700;28;20127;-75
2022/01/28 01:21:21;;;;;;;6.13;3.20;;;;;;;;;;5047049;28;20128;-74
2022/01/28 01:23:53;;;;;;;7.68;4.43;;;;;;;;;;5042718;28;20143;-74
2022/01/28 01:26:31;;;;;;;7.20;3.35;;;;;;;;;;5040546;28;20089;-76
2022/01/28 01:29:00;;;;;;;7.47;3.13;;;;;;;;;;5036335;28;20083;-75
2022/01/28 01:31:29;;;;;;;9.35;4.25;;;;;;;;;;5047640;28;20139;-75
2022/01/28 01:34:03;;;;;;;5.20;2.97;;;;;;;;;;5047359;28;20052;-75
2022/01/28 01:36:32;;;;;;;7.28;3.38;;;;;;;;;;5040082;28;20488;-75
2022/01/28 01:39:00;;;;;;;9.60;3.63;;;;;;;;;;5036948;28;20050;-75
2022/01/28 01:41:34;;;;;;;6.07;3.13;;;;;;;;;;5039236;28;20120;-75
2022/01/28 01:44:07;;;;;;;8.98;3.92;;;;;;;;;;5044685;28;20063;-76
2022/01/28 01:46:48;;;;;;;10.25;4.03;;;;;;;;;;5030640;28;20488;-75
2022/01/28 01:52:04;;;;;;;6.93;3.53;;;;;;;;;;5041257;28;20044;-75
2022/01/28 01:54:37;;;;;;;8.02;3.83;;;;;;;;;;5041695;28;20137;-75
2022/01/28 01:57:08;;;;;;;9.50;3.90;;;;;;;;;;5033954;28;20059;-76
2022/01/28 01:59:37;;;;;;;6.63;3.08;;;;;;;;;;5020269;28;20132;-75
2022/01/28 02:02:06;;;;;;;9.65;4.00;;;;;;;;;;5028232;28;20077;-75
2022/01/28 02:04:34;;;;;;;8.00;3.75;;;;;;;;;;5025502;28;20125;-75
2022/01/28 02:07:03;;;;;;;8.48;3.60;;;;;;;;;;4950989;28;20077;-75
2022/01/28 02:09:31;;;;;;;7.30;3.57;;;;;;;;;;324133;28;10022656;-75
2022/01/28 02:12:00;;;;;;;8.50;3.42;;;;;;;;;;5017545;28;20049;-74
2022/01/28 02:14:30;;;;;;;11.05;3.92;;;;;;;;;;5020603;28;20580;-74
2022/01/28 02:16:58;;;;;;;7.70;3.75;;;;;;;;;;5022119;28;20111;-74
2022/01/28 02:19:27;;;;;;;9.43;3.90;;;;;;;;;;5023646;28;20488;-75
2022/01/28 02:21:57;;;;;;;7.82;3.50;;;;;;;;;;5024430;28;20501;-74
2022/01/28 02:24:31;;;;;;;7.75;4.10;;;;;;;;;;5019132;28;20049;-74
2022/01/28 02:26:59;;;;;;;9.40;3.58;;;;;;;;;;5025013;28;20172;-74
2022/01/28 02:29:30;;;;;;;10.93;3.85;;;;;;;;;;5010405;28;20133;-74
2022/01/28 02:31:59;;;;;;;10.23;4.18;;;;;;;;;;5010986;28;20142;-74
2022/01/28 02:34:27;;;;;;;8.35;4.03;;;;;;;;;;5015639;28;20128;-75
2022/01/28 02:36:56;;;;;;;9.07;4.28;;;;;;;;;;5025030;28;20287;-74
2022/01/28 02:39:27;;;;;;;6.10;3.28;;;;;;;;;;5012423;28;20136;-75
2022/01/28 02:42:12;;;;;;;7.47;3.83;;;;;;;;;;5022382;28;20164;-75
2022/01/28 02:44:48;;;;;;;11.43;4.40;;;;;;;;;;5016251;28;20060;-74
2022/01/28 02:47:28;;;;;;;11.20;3.88;;;;;;;;;;5016091;28;20148;-75
2022/01/28 02:49:56;;;;;;;13.50;5.18;;;;;;;;;;5018090;28;20096;-74
2022/01/28 02:52:34;;;;;;;10.70;4.40;;;;;;;;;;5024034;28;20135;-74
2022/01/28 02:55:09;;;;;;;6.63;3.63;;;;;;;;;;5012372;28;20140;-75
2022/01/28 02:58:14;;;;;;;8.10;3.79;;;;;;;;;;2654260;28;10004039;-74
2022/01/28 03:00:43;;;;;;;16.40;3.92;;;;;;;;;;3993623;28;10001462;-75
2022/01/28 03:03:11;;;;;;;10.10;4.30;;;;;;;;;;5038683;28;20396;-75
2022/01/28 03:05:40;;;;;;;12.70;4.60;;;;;;;;;;5047163;28;20060;-75
2022/01/28 03:08:08;;;;;;;11.23;4.55;;;;;;;;;;5029289;28;20100;-75
2022/01/28 03:10:46;;;;;;;9.10;4.47;;;;;;;;;;5039975;28;20126;-75
2022/01/28 03:13:33;;;;;;;10.60;4.65;;;;;;;;;;5036728;28;20128;-75
2022/01/28 03:16:10;;;;;;;11.02;4.70;;;;;;;;;;5042691;28;20477;-75
2022/01/28 03:18:51;;;;;;;8.40;3.22;;;;;;;;;;5041748;28;20111;-74
2022/01/28 03:21:28;;;;;;;11.63;3.90;;;;;;;;;;5032377;28;20147;-74
2022/01/28 03:23:56;;;;;;;13.80;4.47;;;;;;;;;;5038155;28;20420;-74
2022/01/28 03:26:28;;;;;;;10.77;3.95;;;;;;;;;;5038839;28;20485;-75
2022/01/28 03:28:58;;;;;;;6.20;3.67;;;;;;;;;;5040771;28;20457;-75
2022/01/28 03:31:26;;;;;;;9.63;4.18;;;;;;;;;;5031291;28;20137;-75
2022/01/28 03:33:55;;;;;;;8.75;4.35;;;;;;;;;;5029692;28;20060;-75
2022/01/28 03:36:23;;;;;;;8.68;3.63;;;;;;;;;;5042896;28;20068;-75
2022/01/28 03:38:51;;;;;;;9.10;3.42;;;;;;;;;;5039524;28;20061;-75
2022/01/28 03:41:20;;;;;;;11.13;4.28;;;;;;;;;;5044512;28;20076;-75
2022/01/28 03:43:49;;;;;;;10.57;4.25;;;;;;;;;;5036365;28;20132;-75
2022/01/28 03:46:18;;;;;;;8.25;3.75;;;;;;;;;;5038167;28;20099;-75
2022/01/28 03:48:46;;;;;;;7.38;3.83;;;;;;;;;;5039587;28;20069;-76
2022/01/28 03:51:14;;;;;;;7.65;3.53;;;;;;;;;;5036327;28;20059;-75
2022/01/28 03:53:43;;;;;;;11.23;3.80;;;;;;;;;;5046430;28;20045;-75
2022/01/28 03:56:11;;;;;;;11.07;3.95;;;;;;;;;;5035362;28;20040;-74
2022/01/28 03:58:39;;;;;;;8.50;3.97;;;;;;;;;;5030547;28;20563;-75
2022/01/28 04:01:15;;;;;;;11.38;4.07;;;;;;;;;;5032760;28;20069;-75
2022/01/28 04:03:59;;;;;;;7.03;3.95;;;;;;;;;;5029629;28;20052;-76
2022/01/28 04:12:00;;;;;;;7.60;3.50;;;;;;;;;;5044787;28;20041;-75
2022/01/28 04:14:41;;;;;;;9.93;3.90;;;;;;;;;;5042390;28;20060;-75
2022/01/28 04:17:21;;;;;;;6.60;3.65;;;;;;;;;;5036273;28;20059;-75
2022/01/28 04:20:08;;;;;;;3.47;2.53;;;;;;;;;;1954611;28;10022726;-76
2022/01/28 04:22:36;;;;;;;6.90;3.20;;;;;;;;;;3997851;28;10001449;-75
2022/01/28 04:25:05;;;;;;;8.18;4.00;;;;;;;;;;5042184;28;20124;-74
2022/01/28 04:27:33;;;;;;;10.20;3.22;;;;;;;;;;5051346;28;20057;-74
2022/01/28 04:30:02;;;;;;;11.93;4.30;;;;;;;;;;5037348;28;20412;-74
2022/01/28 04:32:32;;;;;;;6.10;3.53;;;;;;;;;;5046199;28;20135;-75
2022/01/28 04:35:00;;;;;;;9.60;4.00;;;;;;;;;;5040368;28;20164;-75
2022/01/28 04:37:35;;;;;;;10.25;3.17;;;;;;;;;;5039842;28;20080;-75
2022/01/28 04:40:11;;;;;;;6.20;3.78;;;;;;;;;;5041549;28;20132;-74
2022/01/28 04:42:55;;;;;;;7.85;3.60;;;;;;;;;;5044818;28;20124;-74
2022/01/28 04:45:31;;;;;;;8.88;3.85;;;;;;;;;;5032481;28;20140;-74
2022/01/28 04:48:11;;;;;;;9.93;4.78;;;;;;;;;;5038852;28;20131;-75
2022/01/28 04:50:49;;;;;;;6.15;2.97;;;;;;;;;;5044419;28;20045;-75
2022/01/28 04:53:39;;;;;;;14.85;3.72;;;;;;;;;;5047395;28;20143;-74
2022/01/28 04:56:22;;;;;;;9.80;3.42;;;;;;;;;;5051087;28;20061;-75
2022/01/28 04:59:16;;;;;;;8.07;4.03;;;;;;;;;;5047200;28;20083;-74
2022/01/28 05:04:48;;;;;;;8.63;4.07;;;;;;;;;;5014946;28;20049;-74
2022/01/28 05:10:33;;;;;;;7.95;3.10;;;;;;;;;;5043580;28;20051;-74
2022/01/28 05:26:55;;;;;;;7.57;3.88;;;;;;;;;;5033918;28;20128;-75
2022/01/28 05:29:24;;;;;;;9.50;3.88;;;;;;;;;;5040489;28;20084;-75
2022/01/28 05:31:52;;;;;;;8.30;3.67;;;;;;;;;;5032543;28;20085;-74
2022/01/28 05:34:23;;;;;;;8.02;3.30;;;;;;;;;;5046051;28;20401;-74
2022/01/28 05:36:53;;;;;;;10.60;3.65;;;;;;;;;;5030528;28;20103;-74
2022/01/28 05:39:22;;;;;;;10.00;3.72;;;;;;;;;;5033526;28;20431;-75
2022/01/28 05:41:50;;;;;;;11.20;3.55;;;;;;;;;;5035071;28;20049;-75
2022/01/28 05:44:20;;;;;;;9.45;3.90;;;;;;;;;;5037285;28;20045;-76
2022/01/28 05:46:49;;;;;;;11.50;4.05;;;;;;;;;;5043826;28;20185;-76
2022/01/28 05:49:17;;;;;;;7.88;3.92;;;;;;;;;;5039659;28;20049;-76
2022/01/28 05:51:46;;;;;;;9.82;3.72;;;;;;;;;;5041974;28;20520;-76
2022/01/28 05:54:15;;;;;;;13.70;4.28;;;;;;;;;;5038538;28;20073;-77
2022/01/28 05:56:43;;;;;;;6.05;3.35;;;;;;;;;;5036042;28;20050;-75
2022/01/28 05:59:12;;;;;;;8.77;3.53;;;;;;;;;;5039060;28;20133;-73
2022/01/28 06:01:40;;;;;;;6.18;3.10;;;;;;;;;;5034028;28;20113;-75
2022/01/28 06:04:12;;;;;;;11.55;4.45;;;;;;;;;;3678503;28;10023503;-74
2022/01/28 06:06:41;;;;;;;8.35;3.88;;;;;;;;;;1731460;28;10001871;-74
2022/01/28 06:09:10;;;;;;;10.15;3.78;;;;;;;;;;5015950;28;20208;-73
2022/01/28 06:11:39;;;;;;;7.95;3.42;;;;;;;;;;5020264;28;20133;-74
2022/01/28 06:14:08;;;;;;;8.82;3.60;;;;;;;;;;5019545;28;20125;-74
2022/01/28 06:16:36;;;;;;;7.72;3.60;;;;;;;;;;5022503;28;20050;-75
2022/01/28 06:19:04;;;;;;;8.65;3.83;;;;;;;;;;5018862;28;20596;-76
2022/01/28 06:21:33;;;;;;;10.07;3.70;;;;;;;;;;5014982;28;20049;-75
2022/01/28 06:24:02;;;;;;;7.43;3.45;;;;;;;;;;5025659;28;20547;-76
2022/01/28 06:26:31;;;;;;;7.00;3.47;;;;;;;;;;5011069;28;20056;-76
2022/01/28 06:29:01;;;;;;;5.78;2.78;;;;;;;;;;5013946;28;20052;-73
2022/01/28 06:31:29;;;;;;;8.02;3.78;;;;;;;;;;5015387;28;20119;-73
2022/01/28 06:33:57;;;;;;;9.45;3.95;;;;;;;;;;5005909;28;20045;-73
2022/01/28 06:36:26;;;;;;;8.02;3.85;;;;;;;;;;5019001;28;20077;-73
2022/01/28 06:38:54;;;;;;;9.20;3.90;;;;;;;;;;5020431;28;20061;-73
2022/01/28 06:41:23;;;;;;;9.70;3.70;;;;;;;;;;5022965;28;20058;-73
2022/01/28 06:43:51;;;;;;;9.68;3.50;;;;;;;;;;5024811;28;20140;-73
2022/01/28 06:46:21;;;;;;;8.15;3.53;;;;;;;;;;5019750;28;20660;-73
2022/01/28 06:48:50;;;;;;;8.98;3.55;;;;;;;;;;5021431;28;20398;-74
2022/01/28 06:51:18;;;;;;;14.95;3.85;;;;;;;;;;5026546;28;20054;-73
2022/01/28 06:53:46;;;;;;;8.02;3.53;;;;;;;;;;5014427;28;20053;-74
2022/01/28 06:56:14;;;;;;;7.95;4.15;;;;;;;;;;5012455;28;20136;-74
2022/01/28 06:58:43;;;;;;;7.93;3.83;;;;;;;;;;5018947;28;20048;-71
2022/01/28 07:01:12;;;;;;;8.90;3.97;;;;;;;;;;5039219;28;20143;-72
2022/01/28 07:03:42;;;;;;;13.40;3.50;;;;;;;;;;5036761;28;20053;-72
2022/01/28 07:06:10;;;;;;;8.10;3.47;;;;;;;;;;5043513;28;20096;-72
2022/01/28 07:08:39;;;;;;;7.32;3.80;;;;;;;;;;5030658;28;20513;-72
2022/01/28 07:11:07;;;;;;;11.55;4.15;;;;;;;;;;5040600;28;20148;-72
2022/01/28 07:13:35;;;;;;;10.35;4.13;;;;;;;;;;5043234;28;20045;-72
2022/01/28 07:16:07;;;;;;;12.50;4.45;;;;;;;;;;5031919;28;20048;-72
2022/01/28 07:18:35;;;;;;;9.43;3.88;;;;;;;;;;5033868;28;20061;-73
2022/01/28 07:21:07;;;;;;;9.38;4.13;;;;;;;;;;5044887;28;20050;-72
2022/01/28 07:23:36;;;;;;;10.20;3.42;;;;;;;;;;5033338;28;20569;-71
2022/01/28 07:26:08;;;;;;;10.57;3.50;;;;;;;;;;5040554;28;20072;-72
2022/01/28 07:28:38;;;;;;;9.85;3.53;;;;;;;;;;5039844;28;20049;-72
2022/01/28 07:31:08;;;;;;;6.85;3.45;;;;;;;;;;5044593;28;20041;-72
2022/01/28 07:33:38;;;;;;;8.30;2.83;;;;;;;;;;5048666;28;20132;-72
2022/01/28 07:36:08;;;;;;;9.40;3.45;;;;;;;;;;5036731;28;20096;-72
2022/01/28 07:38:36;;;;;;;5.75;3.08;;;;;;;;;;5033449;28;20072;-72
2022/01/28 07:41:08;;;;;;;8.23;3.13;;;;;;;;;;5051591;28;20056;-72
2022/01/28 07:43:39;;;;;;;8.65;3.70;;;;;;;;;;5032956;28;20265;-72
2022/01/28 07:46:08;;;;;;;7.00;3.38;;;;;;;;;;5035290;28;20052;-72
2022/01/28 07:48:36;;;;;;;10.20;4.35;;;;;;;;;;5047553;28;20054;-72
2022/01/28 07:51:09;;;;;;;9.90;4.45;;;;;;;;;;5048264;28;20076;-71
2022/01/28 07:53:38;;;;;;;11.68;4.63;;;;;;;;;;5035145;28;20055;-72
2022/01/28 07:56:07;;;;;;;11.57;4.18;;;;;;;;;;5048477;28;20132;-72
2022/01/28 07:58:37;;;;;;;12.23;4.70;;;;;;;;;;5037290;28;20041;-72
2022/01/28 08:01:08;;;;;;;9.05;3.75;;;;;;;;;;5041021;28;20083;-72
2022/01/28 08:03:40;;;;;;;10.55;4.25;;;;;;;;;;4736657;28;10001001;-73
2022/01/28 08:06:10;;;;;;;12.40;4.05;;;;;;;;;;693633;28;10002115;-72
2022/01/28 08:08:39;;;;;;;10.77;3.88;;;;;;;;;;5033387;28;20049;-71
2022/01/28 08:11:07;;;;;;;11.35;4.07;;;;;;;;;;5046304;28;20118;-71
2022/01/28 08:13:36;;;;;;;11.70;4.45;;;;;;;;;;5047646;28;20528;-71
2022/01/28 08:16:07;;;;;;;9.50;4.03;;;;;;;;;;5044655;28;20128;-71
2022/01/28 08:18:36;;;;;;;10.05;4.53;;;;;;;;;;5041317;28;20046;-73
2022/01/28 08:21:08;;;;;;;9.18;4.03;;;;;;;;;;5050723;28;20064;-72
2022/01/28 08:23:38;;;;;;;7.55;4.15;;;;;;;;;;5050045;28;20053;-72
2022/01/28 08:26:09;;;;;;;10.55;3.67;;;;;;;;;;5050110;28;20068;-72
2022/01/28 08:28:38;;;;;;;7.85;3.55;;;;;;;;;;5034079;28;20050;-72
2022/01/28 08:31:07;;;;;;;8.38;3.78;;;;;;;;;;5042825;28;20473;-72
2022/01/28 08:33:36;;;;;;;7.93;3.22;;;;;;;;;;5043869;28;20045;-72
2022/01/28 08:36:08;;;;;;;11.43;3.80;;;;;;;;;;5050958;28;20059;-72
2022/01/28 08:38:44;;;;;;;10.02;4.35;;;;;;;;;;5045690;28;20057;-72
2022/01/28 08:41:13;;;;;;;6.70;3.40;;;;;;;;;;5054750;28;20060;-72
2022/01/28 08:43:43;;;;;;;6.50;3.40;;;;;;;;;;5036274;28;20065;-72
2022/01/28 08:46:11;;;;;;;7.68;3.55;;;;;;;;;;5037095;28;20050;-72
2022/01/28 08:48:41;;;;;;;6.90;3.30;;;;;;;;;;5034088;28;20060;-72
2022/01/28 08:51:09;;;;;;;8.05;3.97;;;;;;;;;;5041319;28;20052;-72
2022/01/28 08:53:39;;;;;;;5.28;3.15;;;;;;;;;;5037870;28;20045;-72
2022/01/28 08:56:08;;;;;;;12.93;3.75;;;;;;;;;;5049683;28;20076;-73
2022/01/28 08:58:37;;;;;;;7.65;3.22;;;;;;;;;;5043191;28;20045;-73
2022/01/28 09:01:11;;;;;;;8.50;3.42;;;;;;;;;;5044137;28;20056;-73
2022/01/28 09:03:41;;;;;;;8.23;3.53;;;;;;;;;;5043713;28;20416;-73
2022/01/28 09:06:10;;;;;;;9.35;3.88;;;;;;;;;;5033211;28;20124;-73
2022/01/28 09:08:41;;;;;;;6.93;3.17;;;;;;;;;;5035544;28;20653;-73
2022/01/28 09:11:31;;;;;;;5.53;2.80;;;;;;;;;;5036778;28;20092;-73
2022/01/28 09:14:00;;;;;;;6.68;2.58;;;;;;;;;;5041176;28;20041;-73
2022/01/28 09:16:29;;;;;;;8.45;3.08;;;;;;;;;;5049757;28;20045;-73
2022/01/28 09:19:00;;;;;;;8.20;3.03;;;;;;;;;;5048754;28;20056;-73
2022/01/28 09:21:29;;;;;;;7.50;3.22;;;;;;;;;;5048590;28;20064;-73
2022/01/28 09:23:59;;;;;;;6.85;2.53;;;;;;;;;;5033872;28;20059;-73
2022/01/28 09:26:28;;;;;;;8.50;3.22;;;;;;;;;;5045363;28;20052;-73
2022/01/28 09:28:56;;;;;;;9.85;3.53;;;;;;;;;;5030025;28;20045;-72
2022/01/28 09:31:25;;;;;;;7.35;3.25;;;;;;;;;;5038126;28;20080;-72
2022/01/28 09:33:54;;;;;;;7.10;3.17;;;;;;;;;;5043705;28;20049;-72
2022/01/28 09:36:23;;;;;;;5.63;2.65;;;;;;;;;;5033351;28;20525;-74
2022/01/28 09:38:53;;;;;;;7.32;3.40;;;;;;;;;;5030917;28;20053;-73
2022/01/28 09:41:23;;;;;;;9.52;2.88;;;;;;;;;;5044354;28;20150;-73
2022/01/28 09:43:52;;;;;;;7.97;2.67;;;;;;;;;;5032847;28;20500;-73
2022/01/28 09:46:21;;;;;;;4.40;2.45;;;;;;;;;;5032053;28;20065;-73
2022/01/28 09:48:50;;;;;;;8.77;3.30;;;;;;;;;;5033553;28;20471;-73
2022/01/28 09:51:19;;;;;;;5.07;3.08;;;;;;;;;;5041854;28;20053;-74
2022/01/28 09:53:47;;;;;;;7.88;2.88;;;;;;;;;;5049774;28;20055;-73
2022/01/28 09:56:16;;;;;;;11.32;3.20;;;;;;;;;;5039953;28;20053;-73
2022/01/28 09:58:46;;;;;;;5.40;2.95;;;;;;;;;;5036940;28;20048;-73
2022/01/28 10:01:15;;;;;;;6.50;3.33;;;;;;;;;;5047519;28;20087;-73
2022/01/28 10:03:44;;;;;;;8.55;2.50;;;;;;;;;;5003990;28;20045;-74
2022/01/28 10:06:13;;;;;;;7.38;2.94;;;;;;;;;;316920;28;10022517;-73
2022/01/28 10:08:54;;;;;;;4.65;2.58;;;;;;;;;;5037544;28;20041;-73
2022/01/28 10:11:23;;;;;;;5.70;2.58;;;;;;;;;;5044923;28;20041;-73
2022/01/28 10:13:56;;;;;;;5.43;2.63;;;;;;;;;;5033993;28;20053;-72
2022/01/28 10:16:26;;;;;;;5.75;2.05;;;;;;;;;;5032068;28;20045;-73
2022/01/28 10:18:56;;;;;;;4.07;2.58;;;;;;;;;;5039169;28;20111;-73
2022/01/28 10:21:29;;;;;;;5.97;2.72;;;;;;;;;;5040659;28;20044;-72
2022/01/28 10:23:59;;;;;;;4.60;2.03;;;;;;;;;;5035713;28;20421;-73
2022/01/28 10:26:29;;;;;;;4.75;2.13;;;;;;;;;;5044164;28;20049;-73
2022/01/28 10:29:00;;;;;;;6.13;2.30;;;;;;;;;;5042390;28;20073;-73
2022/01/28 10:31:40;;;;;;;7.35;2.63;;;;;;;;;;5042656;28;20560;-73
2022/01/28 10:34:19;;;;;;;8.60;2.80;;;;;;;;;;5053430;28;20041;-73
2022/01/28 10:36:49;;;;;;;4.82;2.45;;;;;;;;;;5040286;28;20041;-73
2022/01/28 10:39:20;;;;;;;6.03;2.60;;;;;;;;;;5044690;28;20597;-73
2022/01/28 10:41:56;;;;;;;4.30;2.25;;;;;;;;;;5040917;28;20096;-73
2022/01/28 10:44:28;;;;;;;4.20;2.50;;;;;;;;;;5044992;28;20412;-73
2022/01/28 10:46:58;;;;;;;11.77;2.40;;;;;;;;;;5038809;28;20053;-73
2022/01/28 10:49:31;;;;;;;6.13;2.45;;;;;;;;;;5040804;28;20052;-72
2022/01/28 10:52:07;;;;;;;6.90;2.67;;;;;;;;;;5039676;28;20060;-72
2022/01/28 10:54:36;;;;;;;5.95;3.00;;;;;;;;;;5037832;28;20532;-73
2022/01/28 10:57:06;;;;;;;8.10;2.25;;;;;;;;;;5040405;28;20272;-73
2022/01/28 10:59:38;;;;;;;6.50;2.72;;;;;;;;;;5041269;28;20045;-73
2022/01/28 11:02:08;;;;;;;5.25;2.05;;;;;;;;;;5045572;28;20103;-73
2022/01/28 11:04:37;;;;;;;7.65;2.38;;;;;;;;;;5043950;28;20056;-72
2022/01/28 11:07:06;;;;;;;3.72;2.30;;;;;;;;;;5046107;28;20045;-73
2022/01/28 11:09:35;;;;;;;5.90;1.50;;;;;;;;;;5045143;28;20175;-73
2022/01/28 11:12:04;;;;;;;5.25;2.53;;;;;;;;;;5033899;28;20049;-73
2022/01/28 11:14:33;;;;;;;5.50;1.88;;;;;;;;;;5038058;28;20144;-72
2022/01/28 11:17:03;;;;;;;5.90;2.30;;;;;;;;;;5040659;28;20114;-73
2022/01/28 11:19:35;;;;;;;5.40;2.05;;;;;;;;;;5049053;28;20126;-73
2022/01/28 11:22:11;;;;;;;9.23;2.10;;;;;;;;;;5050734;28;20045;-72
2022/01/28 11:24:45;;;;;;;7.07;2.53;;;;;;;;;;5046984;28;20045;-72
2022/01/28 11:27:15;;;;;;;9.02;1.92;;;;;;;;;;5041050;28;20136;-72
2022/01/28 11:29:44;;;;;;;9.23;2.10;;;;;;;;;;5047177;28;20059;-73
2022/01/28 11:32:15;;;;;;;6.20;2.00;;;;;;;;;;5039914;28;20051;-71
2022/01/28 11:34:56;;;;;;;5.68;1.70;;;;;;;;;;5052211;28;20048;-71
2022/01/28 11:37:28;;;;;;;5.07;1.90;;;;;;;;;;5048519;28;20484;-72
2022/01/28 11:40:07;;;;;;;4.32;1.60;;;;;;;;;;5046880;28;20490;-71
2022/01/28 11:42:36;;;;;;;4.05;1.73;;;;;;;;;;5050187;28;20533;-71
2022/01/28 11:45:10;;;;;;;3.20;1.38;;;;;;;;;;5051414;28;20163;-72
2022/01/28 11:47:41;;;;;;;5.72;1.65;;;;;;;;;;5048835;28;20037;-71
2022/01/28 11:50:11;;;;;;;4.32;1.55;;;;;;;;;;5050534;28;20068;-71
2022/01/28 11:52:41;;;;;;;2.00;1.13;;;;;;;;;;5039698;28;20145;-72
2022/01/28 11:55:28;;;;;;;6.55;1.80;;;;;;;;;;5041256;28;20070;-72
2022/01/28 11:57:57;;;;;;;3.83;1.63;;;;;;;;;;5042497;28;20543;-72
2022/01/28 12:00:26;;;;;;;6.45;1.40;;;;;;;;;;5045081;28;20063;-72
2022/01/28 12:02:57;;;;;;;5.28;1.70;;;;;;;;;;5050804;28;20312;-73
2022/01/28 12:05:50;;;;;;;7.00;1.50;;;;;;;;;;1814847;28;10022680;-74
2022/01/28 12:08:21;;;;;;;8.75;1.42;;;;;;;;;;3985097;28;10001168;-72
2022/01/28 12:10:51;;;;;;;3.20;1.55;;;;;;;;;;5012602;28;20081;-72
2022/01/28 12:13:21;;;;;;;5.75;1.80;;;;;;;;;;5032537;28;20493;-72
2022/01/28 12:16:13;;;;;;;7.35;2.00;;;;;;;;;;5022152;28;20053;-72
2022/01/28 12:18:53;;;;;;;5.78;1.70;;;;;;;;;;5014233;28;20049;-72
2022/01/28 12:21:23;;;;;;;3.78;1.42;;;;;;;;;;5028473;28;20084;-72
2022/01/28 12:23:53;;;;;;;10.25;2.08;;;;;;;;;;5014368;28;20383;-72
2022/01/28 12:26:22;;;;;;;7.30;2.20;;;;;;;;;;5032924;28;20056;-72
2022/01/28 12:28:52;;;;;;;3.97;1.70;;;;;;;;;;5026121;28;20065;-72
2022/01/28 12:31:25;;;;;;;4.15;1.75;;;;;;;;;;5016470;28;20056;-72
2022/01/28 12:33:56;;;;;;;3.90;1.25;;;;;;;;;;5027718;28;20052;-72
2022/01/28 12:36:25;;;;;;;3.63;1.75;;;;;;;;;;5014038;28;20137;-72
2022/01/28 12:38:59;;;;;;;3.00;1.48;;;;;;;;;;5024011;28;20054;-72
2022/01/28 12:41:30;;;;;;;6.43;1.37;;;;;;;;;;4980883;28;20501;-72
2022/01/28 12:43:58;;;;;;;2.65;1.30;;;;;;;;;;4969742;28;20055;-72
2022/01/28 12:46:28;;;;;;;4.03;1.90;;;;;;;;;;4982530;28;20567;-72
2022/01/28 12:49:02;;;;;;;5.38;1.50;;;;;;;;;;4980522;28;20049;-72
2022/01/28 12:51:30;;;;;;;5.10;1.55;;;;;;;;;;5004547;28;20057;-72
2022/01/28 12:53:59;;;;;;;4.90;1.60;;;;;;;;;;5008708;28;20060;-73
2022/01/28 12:56:32;;;;;;;3.40;1.23;;;;;;;;;;5001787;28;20042;-73
2022/01/28 12:59:01;;;;;;;5.07;1.45;;;;;;;;;;4998722;28;20057;-72
2022/01/28 13:01:30;;;;;;;3.53;1.25;;;;;;;;;;5004092;28;20409;-72
2022/01/28 13:04:07;;;;;;;6.05;1.52;;;;;;;;;;4997444;28;20104;-72
2022/01/28 13:09:24;;;;;;;5.60;1.60;;;;;;;;;;4998378;28;20754;-72
2022/01/28 13:11:53;;;;;;;4.10;1.55;;;;;;;;;;5002526;28;20054;-72
2022/01/28 13:14:23;;;;;;;5.45;2.10;;;;;;;;;;5000565;28;20077;-73
2022/01/28 13:16:52;;;;;;;6.28;2.05;;;;;;;;;;5000750;28;20053;-72
2022/01/28 13:19:22;;;;;;;4.63;1.85;;;;;;;;;;4996139;28;20128;-73
2022/01/28 13:21:52;;;;;;;4.03;1.20;;;;;;;;;;5004947;28;20049;-72
2022/01/28 13:24:22;;;;;;;4.63;1.35;;;;;;;;;;5019974;28;20053;-73
2022/01/28 13:26:56;;;;;;;3.33;1.33;;;;;;;;;;4994027;28;20181;-73
2022/01/28 13:29:32;;;;;;;3.65;1.10;;;;;;;;;;4994577;28;20058;-73
2022/01/28 13:32:01;;;;;;;1.52;0.85;;;;;;;;;;4991007;28;20089;-72
2022/01/28 13:34:45;;;;;;;7.18;1.40;;;;;;;;;;4995019;28;20502;-72
2022/01/28 13:37:15;;;;;;;2.75;1.25;;;;;;;;;;4994673;28;20113;-73
2022/01/28 13:39:44;;;;;;;4.00;1.10;;;;;;;;;;5003442;28;20098;-73
2022/01/28 13:42:15;;;;;;;4.53;1.30;;;;;;;;;;5045764;28;20056;-73
2022/01/28 13:44:49;;;;;;;12.55;2.25;;;;;;;;;;5034224;28;20532;-73
2022/01/28 13:47:18;;;;;;;2.75;1.30;;;;;;;;;;5040973;28;20495;-73
2022/01/28 13:49:50;;;;;;;3.55;1.67;;;;;;;;;;5040968;28;20049;-73
2022/01/28 13:52:25;;;;;;;5.90;1.45;;;;;;;;;;5042239;28;20048;-73
2022/01/28 13:54:54;;;;;;;3.95;1.30;;;;;;;;;;5033546;28;20048;-73
2022/01/28 13:57:29;;;;;;;6.07;1.20;;;;;;;;;;5045146;28;20070;-72
2022/01/28 14:00:02;;;;;;;2.78;1.00;;;;;;;;;;5034271;28;20045;-73
2022/01/28 14:02:40;;;;;;;4.40;1.27;;;;;;;;;;5041995;28;20056;-73
2022/01/28 14:05:21;;;;;;;5.20;1.20;;;;;;;;;;2360602;28;10022828;-73
2022/01/28 14:07:54;;;;;;;4.78;1.38;;;;;;;;;;3648350;28;10001252;-71
2022/01/28 14:10:23;;;;;;;5.57;1.00;;;;;;;;;;5028274;28;20107;-72
2022/01/28 14:12:54;;;;;;;4.55;1.27;;;;;;;;;;5046770;28;20215;-72
2022/01/28 14:15:28;;;;;;;1.90;1.15;;;;;;;;;;5039408;28;20045;-72
2022/01/28 14:17:58;;;;;;;5.75;1.00;;;;;;;;;;5035107;28;20049;-73
2022/01/28 14:20:28;;;;;;;2.30;1.13;;;;;;;;;;5035536;28;20041;-72
2022/01/28 14:22:58;;;;;;;2.38;1.13;;;;;;;;;;5030823;28;20046;-72
2022/01/28 14:25:26;;;;;;;5.80;1.08;;;;;;;;;;5034477;28;20493;-72
2022/01/28 14:28:13;;;;;;;7.95;1.48;;;;;;;;;;5036412;28;20045;-73
2022/01/28 14:30:43;;;;;;;3.83;1.08;;;;;;;;;;5035676;28;20041;-72
2022/01/28 14:33:12;;;;;;;3.45;1.48;;;;;;;;;;5043806;28;20056;-72
2022/01/28 14:35:46;;;;;;;4.88;1.17;;;;;;;;;;5044159;28;20048;-72
2022/01/28 14:38:18;;;;;;;6.35;1.33;;;;;;;;;;5041185;28;20110;-72
2022/01/28 14:40:47;;;;;;;4.20;1.20;;;;;;;;;;5047983;28;20045;-72
2022/01/28 14:43:15;;;;;;;1.85;1.00;;;;;;;;;;5048944;28;20497;-72
2022/01/28 14:45:44;;;;;;;5.72;1.17;;;;;;;;;;5050283;28;20048;-72
2022/01/28 14:48:15;;;;;;;6.10;1.23;;;;;;;;;;5028769;28;20061;-73
2022/01/28 14:50:44;;;;;;;1.30;0.98;;;;;;;;;;5042418;28;20049;-72
2022/01/28 14:53:14;;;;;;;6.25;1.10;;;;;;;;;;5047203;28;20068;-73
2022/01/28 14:55:43;;;;;;;4.10;1.38;;;;;;;;;;5048058;28;20059;-72
2022/01/28 14:58:12;;;;;;;3.88;1.00;;;;;;;;;;5047087;28;20043;-73
2022/01/28 15:00:41;;;;;;;3.28;1.13;;;;;;;;;;5038221;28;20049;-72
2022/01/28 15:03:10;;;;;;;6.85;1.40;;;;;;;;;;5040014;28;20498;-72
2022/01/28 15:05:39;;;;;;;2.83;1.38;;;;;;;;;;5046600;28;20098;-72
2022/01/28 15:08:09;;;;;;;5.10;1.35;;;;;;;;;;5055019;28;20619;-72
2022/01/28 15:10:40;;;;;;;2.33;1.35;;;;;;;;;;5040859;28;20492;-72
2022/01/28 15:13:08;;;;;;;5.05;1.38;;;;;;;;;;5034694;28;20422;-72
2022/01/28 15:15:40;;;;;;;2.72;1.33;;;;;;;;;;5045085;28;20139;-72
2022/01/28 15:18:09;;;;;;;3.67;1.58;;;;;;;;;;5045421;28;20053;-73
2022/01/28 15:20:38;;;;;;;1.73;1.00;;;;;;;;;;5036045;28;20475;-73
2022/01/28 15:23:07;;;;;;;1.80;1.08;;;;;;;;;;5039395;28;20049;-72
2022/01/28 15:25:35;;;;;;;3.28;0.95;;;;;;;;;;5048854;28;20041;-72
2022/01/28 15:28:13;;;;;;;2.05;1.17;;;;;;;;;;5040020;28;20046;-72
2022/01/28 15:36:18;;;;;;;2.85;1.45;;;;;;;;;;5026063;28;20053;-73
2022/01/28 15:38:46;;;;;;;4.70;1.88;;;;;;;;;;5036546;28;20041;-73
2022/01/28 15:41:15;;;;;;;6.65;1.45;;;;;;;;;;5039307;28;20083;-73
2022/01/28 15:43:45;;;;;;;5.22;2.05;;;;;;;;;;5041437;28;20041;-73
2022/01/28 15:46:14;;;;;;;2.55;1.40;;;;;;;;;;5028678;28;20383;-73
2022/01/28 15:48:43;;;;;;;4.68;1.98;;;;;;;;;;5034530;28;20045;-73
2022/01/28 15:51:11;;;;;;;5.47;1.55;;;;;;;;;;5042607;28;20103;-73
2022/01/28 15:53:40;;;;;;;5.97;1.55;;;;;;;;;;5036173;28;20216;-73
2022/01/28 15:56:09;;;;;;;2.15;1.25;;;;;;;;;;5035567;28;20146;-73
2022/01/28 15:58:38;;;;;;;2.22;1.38;;;;;;;;;;5039247;28;20140;-73
2022/01/28 16:01:08;;;;;;;4.65;1.48;;;;;;;;;;5039129;28;20049;-73